Marechal Cunha Machado International Airport
SBSL : now visible

Airfield :











YOU CAN JOIN US ON...

 
LOGIN :

Register | Disclaimer

   EN    FR    IT 

 









Legend :    VFR   Marginal VFR   IFR   Intensive IFR   Very Intensive IFR
Visi :
Ceiling :
>= 8 km
>= 3000ft
5 to 8 km
1000 to 3000 ft
1500m to 5 km
500 to 1000 ft
800 to 1500m
200 to 500 ft
< 800m
< 200 ft
Symbols :   Thunderstorms  Fog  Heavy snow  Heavy precipitations  Wind > 20 kt






- Airport Elevation : 178 ft
- IATA code : SLZ


SBSL - Marechal Cunha Machado International

CURRENT METAR :
  • 301000Z 08004KT 9999 SCT007 26/26 Q1009

EXPIRED METARs :
  • 300900Z 06002KT 9999 SCT020 FEW025TCU 25/25 Q1009
  • 300800Z 15004KT 9999 SCT020 SCT100 26/25 Q1009

TAF TAF SBSL
Valid from the 30 at 06:00 until the 31 at 06:00 UTC


300300Z 3006/3106 13005KT 9999 SCT017 TX31/3018Z TN25/3106Z
BECMG 3015/3017 03010KT BKN020
PROB40
TEMPO 3018/3023 36010KT 6000 TSRA BKN017 FEW027CB
BECMG 3103/3106 13005KT FEW015 RMK PGY



MET'MAP, your aeronautical weather chart ! - Copyright ORBIFLY December 2007 - Disclaimer

ORBIFLY MET'MAP TEAM :

Programming & Development : Alexandra Zaïnal
Concept & original design : Baudouin d'Aumeries
Assistance for programming : Marc-Olivier Méhu
Technical & hardware support : Manuel Goepfert

Contact : metmap@orbifly.com




SOURCES & CREDITS :

   NOAA       Earth
Advisory